sensor_id;sensor_type;location;lat;lon;timestamp;P1;durP1;ratioP1;P2;durP2;ratioP2
78207;SDS011;67481;50.244;18.288;2023-02-15T00:01:52;60.78;;;27.02;;
78207;SDS011;67481;50.244;18.288;2023-02-15T00:04:38;78.40;;;29.70;;
78207;SDS011;67481;50.244;18.288;2023-02-15T00:07:32;71.95;;;28.10;;
78207;SDS011;67481;50.244;18.288;2023-02-15T00:10:18;76.70;;;28.02;;
78207;SDS011;67481;50.244;18.288;2023-02-15T00:13:03;83.00;;;29.25;;
78207;SDS011;67481;50.244;18.288;2023-02-15T00:15:49;68.13;;;24.38;;
78207;SDS011;67481;50.244;18.288;2023-02-15T00:18:34;65.80;;;25.85;;
78207;SDS011;67481;50.244;18.288;2023-02-15T00:21:19;63.35;;;24.38;;
78207;SDS011;67481;50.244;18.288;2023-02-15T00:24:06;76.38;;;25.50;;
78207;SDS011;67481;50.244;18.288;2023-02-15T00:26:53;60.58;;;22.30;;
78207;SDS011;67481;50.244;18.288;2023-02-15T00:29:41;54.63;;;19.77;;
78207;SDS011;67481;50.244;18.288;2023-02-15T00:32:26;57.97;;;23.08;;
78207;SDS011;67481;50.244;18.288;2023-02-15T00:35:11;54.17;;;21.00;;
78207;SDS011;67481;50.244;18.288;2023-02-15T00:37:57;56.58;;;21.75;;
78207;SDS011;67481;50.244;18.288;2023-02-15T00:40:42;47.75;;;19.92;;
78207;SDS011;67481;50.244;18.288;2023-02-15T00:43:28;51.53;;;20.25;;
78207;SDS011;67481;50.244;18.288;2023-02-15T00:46:16;51.97;;;21.10;;
78207;SDS011;67481;50.244;18.288;2023-02-15T00:49:02;51.92;;;21.60;;
78207;SDS011;67481;50.244;18.288;2023-02-15T00:51:48;53.90;;;23.83;;
78207;SDS011;67481;50.244;18.288;2023-02-15T00:54:33;45.58;;;19.95;;
78207;SDS011;67481;50.244;18.288;2023-02-15T00:57:19;47.47;;;21.42;;
78207;SDS011;67481;50.244;18.288;2023-02-15T01:00:05;50.00;;;21.25;;
78207;SDS011;67481;50.244;18.288;2023-02-15T01:02:52;52.03;;;21.95;;
78207;SDS011;67481;50.244;18.288;2023-02-15T01:05:37;47.85;;;20.27;;
78207;SDS011;67481;50.244;18.288;2023-02-15T01:08:22;51.28;;;20.95;;
78207;SDS011;67481;50.244;18.288;2023-02-15T01:11:09;47.35;;;18.77;;
78207;SDS011;67481;50.244;18.288;2023-02-15T01:13:57;50.90;;;22.73;;
78207;SDS011;67481;50.244;18.288;2023-02-15T01:16:43;54.45;;;23.10;;
78207;SDS011;67481;50.244;18.288;2023-02-15T01:19:28;46.47;;;20.05;;
78207;SDS011;67481;50.244;18.288;2023-02-15T01:22:13;61.15;;;27.08;;
78207;SDS011;67481;50.244;18.288;2023-02-15T01:24:59;63.78;;;27.95;;
78207;SDS011;67481;50.244;18.288;2023-02-15T01:27:47;53.88;;;23.30;;
78207;SDS011;67481;50.244;18.288;2023-02-15T01:30:32;46.75;;;19.42;;
78207;SDS011;67481;50.244;18.288;2023-02-15T01:33:18;49.88;;;22.05;;
78207;SDS011;67481;50.244;18.288;2023-02-15T01:36:04;54.63;;;23.90;;
78207;SDS011;67481;50.244;18.288;2023-02-15T01:38:49;58.30;;;24.08;;
78207;SDS011;67481;50.244;18.288;2023-02-15T01:41:36;49.53;;;18.45;;
78207;SDS011;67481;50.244;18.288;2023-02-15T01:47:36;49.03;;;22.02;;
78207;SDS011;67481;50.244;18.288;2023-02-15T01:53:27;43.30;;;17.05;;
78207;SDS011;67481;50.244;18.288;2023-02-15T01:56:27;49.47;;;19.40;;
78207;SDS011;67481;50.244;18.288;2023-02-15T01:59:19;42.35;;;17.92;;
78207;SDS011;67481;50.244;18.288;2023-02-15T02:02:07;53.10;;;22.63;;
78207;SDS011;67481;50.244;18.288;2023-02-15T02:04:56;48.53;;;21.08;;
78207;SDS011;67481;50.244;18.288;2023-02-15T02:07:43;48.33;;;21.23;;
78207;SDS011;67481;50.244;18.288;2023-02-15T02:10:30;52.38;;;23.33;;
78207;SDS011;67481;50.244;18.288;2023-02-15T02:13:15;56.95;;;23.75;;
78207;SDS011;67481;50.244;18.288;2023-02-15T02:16:08;54.38;;;23.05;;
78207;SDS011;67481;50.244;18.288;2023-02-15T02:31:25;64.32;;;25.60;;
78207;SDS011;67481;50.244;18.288;2023-02-15T02:34:36;51.55;;;20.58;;
78207;SDS011;67481;50.244;18.288;2023-02-15T02:37:40;56.33;;;21.40;;
78207;SDS011;67481;50.244;18.288;2023-02-15T02:43:24;59.00;;;22.25;;
78207;SDS011;67481;50.244;18.288;2023-02-15T02:49:58;66.43;;;24.35;;
78207;SDS011;67481;50.244;18.288;2023-02-15T02:52:46;51.72;;;20.23;;
78207;SDS011;67481;50.244;18.288;2023-02-15T02:55:40;58.08;;;22.60;;
78207;SDS011;67481;50.244;18.288;2023-02-15T02:58:37;51.33;;;19.52;;
78207;SDS011;67481;50.244;18.288;2023-02-15T03:01:32;50.95;;;20.88;;
78207;SDS011;67481;50.244;18.288;2023-02-15T03:04:30;62.85;;;23.60;;
78207;SDS011;67481;50.244;18.288;2023-02-15T03:07:19;55.55;;;21.15;;
78207;SDS011;67481;50.244;18.288;2023-02-15T03:10:09;52.92;;;21.63;;
78207;SDS011;67481;50.244;18.288;2023-02-15T03:12:55;53.17;;;20.88;;
78207;SDS011;67481;50.244;18.288;2023-02-15T03:15:40;60.67;;;22.67;;
78207;SDS011;67481;50.244;18.288;2023-02-15T03:18:47;49.10;;;21.52;;
78207;SDS011;67481;50.244;18.288;2023-02-15T03:21:43;60.38;;;24.67;;
78207;SDS011;67481;50.244;18.288;2023-02-15T03:24:44;59.60;;;24.05;;
78207;SDS011;67481;50.244;18.288;2023-02-15T03:27:36;56.05;;;22.67;;
78207;SDS011;67481;50.244;18.288;2023-02-15T03:30:24;56.00;;;23.42;;
78207;SDS011;67481;50.244;18.288;2023-02-15T03:33:12;56.90;;;23.92;;
78207;SDS011;67481;50.244;18.288;2023-02-15T03:36:09;54.15;;;22.55;;
78207;SDS011;67481;50.244;18.288;2023-02-15T03:39:04;53.50;;;19.27;;
78207;SDS011;67481;50.244;18.288;2023-02-15T03:45:05;60.60;;;24.50;;
78207;SDS011;67481;50.244;18.288;2023-02-15T03:47:53;55.33;;;22.45;;
78207;SDS011;67481;50.244;18.288;2023-02-15T03:50:41;50.90;;;21.90;;
78207;SDS011;67481;50.244;18.288;2023-02-15T03:53:45;59.17;;;21.95;;
78207;SDS011;67481;50.244;18.288;2023-02-15T03:56:32;51.15;;;20.00;;
78207;SDS011;67481;50.244;18.288;2023-02-15T03:59:20;54.17;;;20.70;;
78207;SDS011;67481;50.244;18.288;2023-02-15T04:02:24;52.80;;;20.25;;
78207;SDS011;67481;50.244;18.288;2023-02-15T04:05:15;52.53;;;19.13;;
78207;SDS011;67481;50.244;18.288;2023-02-15T04:08:02;51.58;;;19.10;;
78207;SDS011;67481;50.244;18.288;2023-02-15T04:10:48;49.72;;;20.45;;
78207;SDS011;67481;50.244;18.288;2023-02-15T04:13:43;48.92;;;17.83;;
78207;SDS011;67481;50.244;18.288;2023-02-15T04:16:28;54.83;;;21.23;;
78207;SDS011;67481;50.244;18.288;2023-02-15T04:19:15;48.42;;;18.33;;
78207;SDS011;67481;50.244;18.288;2023-02-15T04:22:19;52.22;;;20.30;;
78207;SDS011;67481;50.244;18.288;2023-02-15T04:25:23;62.50;;;23.30;;
78207;SDS011;67481;50.244;18.288;2023-02-15T04:28:09;66.93;;;23.55;;
78207;SDS011;67481;50.244;18.288;2023-02-15T04:30:54;66.57;;;24.65;;
78207;SDS011;67481;50.244;18.288;2023-02-15T04:33:40;68.32;;;25.52;;
78207;SDS011;67481;50.244;18.288;2023-02-15T04:36:25;71.32;;;26.33;;
78207;SDS011;67481;50.244;18.288;2023-02-15T04:39:13;63.45;;;24.67;;
78207;SDS011;67481;50.244;18.288;2023-02-15T04:41:59;67.60;;;24.70;;
78207;SDS011;67481;50.244;18.288;2023-02-15T04:44:44;63.25;;;27.02;;
78207;SDS011;67481;50.244;18.288;2023-02-15T04:47:29;70.15;;;29.67;;
78207;SDS011;67481;50.244;18.288;2023-02-15T04:50:15;61.38;;;25.80;;
78207;SDS011;67481;50.244;18.288;2023-02-15T04:53:01;95.88;;;35.65;;
78207;SDS011;67481;50.244;18.288;2023-02-15T04:55:46;97.43;;;38.05;;
78207;SDS011;67481;50.244;18.288;2023-02-15T04:58:31;79.47;;;31.55;;
78207;SDS011;67481;50.244;18.288;2023-02-15T05:01:17;84.50;;;33.50;;
78207;SDS011;67481;50.244;18.288;2023-02-15T05:04:03;92.57;;;38.20;;
78207;SDS011;67481;50.244;18.288;2023-02-15T05:06:48;104.20;;;37.72;;
78207;SDS011;67481;50.244;18.288;2023-02-15T05:09:34;97.53;;;35.13;;
78207;SDS011;67481;50.244;18.288;2023-02-15T05:12:19;94.75;;;34.58;;
78207;SDS011;67481;50.244;18.288;2023-02-15T05:15:05;88.28;;;33.38;;
78207;SDS011;67481;50.244;18.288;2023-02-15T05:17:51;97.63;;;33.95;;
78207;SDS011;67481;50.244;18.288;2023-02-15T05:20:36;86.25;;;33.08;;
78207;SDS011;67481;50.244;18.288;2023-02-15T05:23:22;75.95;;;28.48;;
78207;SDS011;67481;50.244;18.288;2023-02-15T05:26:10;72.93;;;24.73;;
78207;SDS011;67481;50.244;18.288;2023-02-15T05:29:15;60.30;;;24.58;;
78207;SDS011;67481;50.244;18.288;2023-02-15T05:32:01;59.25;;;24.10;;
78207;SDS011;67481;50.244;18.288;2023-02-15T05:34:48;59.20;;;22.70;;
78207;SDS011;67481;50.244;18.288;2023-02-15T05:37:33;65.75;;;25.25;;
78207;SDS011;67481;50.244;18.288;2023-02-15T05:40:20;66.05;;;26.08;;
78207;SDS011;67481;50.244;18.288;2023-02-15T05:43:06;48.05;;;20.58;;
78207;SDS011;67481;50.244;18.288;2023-02-15T05:45:52;63.50;;;26.80;;
78207;SDS011;67481;50.244;18.288;2023-02-15T05:48:39;67.18;;;27.25;;
78207;SDS011;67481;50.244;18.288;2023-02-15T05:51:24;68.18;;;27.45;;
78207;SDS011;67481;50.244;18.288;2023-02-15T05:54:10;69.32;;;28.02;;
78207;SDS011;67481;50.244;18.288;2023-02-15T05:56:55;60.45;;;22.33;;
78207;SDS011;67481;50.244;18.288;2023-02-15T05:59:40;72.82;;;29.52;;
78207;SDS011;67481;50.244;18.288;2023-02-15T06:02:26;80.72;;;31.02;;
78207;SDS011;67481;50.244;18.288;2023-02-15T06:05:12;73.25;;;29.77;;
78207;SDS011;67481;50.244;18.288;2023-02-15T06:07:57;69.90;;;27.67;;
78207;SDS011;67481;50.244;18.288;2023-02-15T06:10:45;71.22;;;28.60;;
78207;SDS011;67481;50.244;18.288;2023-02-15T06:13:31;74.40;;;27.75;;
78207;SDS011;67481;50.244;18.288;2023-02-15T06:16:19;69.88;;;27.00;;
78207;SDS011;67481;50.244;18.288;2023-02-15T06:19:06;84.22;;;29.38;;
78207;SDS011;67481;50.244;18.288;2023-02-15T06:21:52;86.15;;;31.67;;
78207;SDS011;67481;50.244;18.288;2023-02-15T06:24:37;70.88;;;28.48;;
78207;SDS011;67481;50.244;18.288;2023-02-15T06:27:23;68.40;;;29.00;;
78207;SDS011;67481;50.244;18.288;2023-02-15T06:30:09;81.60;;;30.30;;
78207;SDS011;67481;50.244;18.288;2023-02-15T06:32:55;81.60;;;31.48;;
78207;SDS011;67481;50.244;18.288;2023-02-15T06:35:40;96.18;;;36.88;;
78207;SDS011;67481;50.244;18.288;2023-02-15T06:38:26;92.72;;;36.08;;
78207;SDS011;67481;50.244;18.288;2023-02-15T06:41:12;70.38;;;30.77;;
78207;SDS011;67481;50.244;18.288;2023-02-15T06:43:57;87.63;;;33.45;;
78207;SDS011;67481;50.244;18.288;2023-02-15T06:46:43;94.05;;;37.13;;
78207;SDS011;67481;50.244;18.288;2023-02-15T06:49:31;116.15;;;46.03;;
78207;SDS011;67481;50.244;18.288;2023-02-15T06:52:16;152.07;;;56.28;;
78207;SDS011;67481;50.244;18.288;2023-02-15T06:55:02;144.27;;;53.03;;
78207;SDS011;67481;50.244;18.288;2023-02-15T06:57:48;123.07;;;42.35;;
78207;SDS011;67481;50.244;18.288;2023-02-15T07:00:35;128.98;;;44.67;;
78207;SDS011;67481;50.244;18.288;2023-02-15T07:03:20;133.02;;;45.50;;
78207;SDS011;67481;50.244;18.288;2023-02-15T07:06:05;144.82;;;47.95;;
78207;SDS011;67481;50.244;18.288;2023-02-15T07:08:53;135.65;;;48.10;;
78207;SDS011;67481;50.244;18.288;2023-02-15T07:11:39;113.13;;;43.88;;
78207;SDS011;67481;50.244;18.288;2023-02-15T07:14:43;107.55;;;41.28;;
78207;SDS011;67481;50.244;18.288;2023-02-15T07:17:28;85.88;;;35.03;;
78207;SDS011;67481;50.244;18.288;2023-02-15T07:20:22;62.50;;;28.00;;
78207;SDS011;67481;50.244;18.288;2023-02-15T07:23:08;79.25;;;33.38;;
78207;SDS011;67481;50.244;18.288;2023-02-15T07:26:00;89.22;;;36.80;;
78207;SDS011;67481;50.244;18.288;2023-02-15T07:28:47;86.30;;;32.53;;
78207;SDS011;67481;50.244;18.288;2023-02-15T07:31:33;73.32;;;29.08;;
78207;SDS011;67481;50.244;18.288;2023-02-15T07:34:18;86.75;;;32.42;;
78207;SDS011;67481;50.244;18.288;2023-02-15T07:37:04;82.05;;;34.42;;
78207;SDS011;67481;50.244;18.288;2023-02-15T07:39:49;104.38;;;40.13;;
78207;SDS011;67481;50.244;18.288;2023-02-15T07:42:35;107.72;;;39.70;;
78207;SDS011;67481;50.244;18.288;2023-02-15T07:45:21;81.80;;;31.58;;
78207;SDS011;67481;50.244;18.288;2023-02-15T07:48:06;88.00;;;36.20;;
78207;SDS011;67481;50.244;18.288;2023-02-15T07:50:52;73.38;;;29.65;;
78207;SDS011;67481;50.244;18.288;2023-02-15T07:53:38;72.18;;;29.77;;
78207;SDS011;67481;50.244;18.288;2023-02-15T07:56:24;70.40;;;30.02;;
78207;SDS011;67481;50.244;18.288;2023-02-15T07:59:09;94.57;;;35.70;;
78207;SDS011;67481;50.244;18.288;2023-02-15T08:01:55;63.95;;;27.42;;
78207;SDS011;67481;50.244;18.288;2023-02-15T08:04:42;71.80;;;28.00;;
78207;SDS011;67481;50.244;18.288;2023-02-15T08:07:27;65.15;;;27.50;;
78207;SDS011;67481;50.244;18.288;2023-02-15T08:10:12;85.25;;;34.50;;
78207;SDS011;67481;50.244;18.288;2023-02-15T08:13:18;64.95;;;27.60;;
78207;SDS011;67481;50.244;18.288;2023-02-15T08:16:03;62.63;;;26.17;;
78207;SDS011;67481;50.244;18.288;2023-02-15T08:18:50;77.72;;;32.95;;
78207;SDS011;67481;50.244;18.288;2023-02-15T08:21:37;81.35;;;32.72;;
78207;SDS011;67481;50.244;18.288;2023-02-15T08:24:27;71.55;;;28.48;;
78207;SDS011;67481;50.244;18.288;2023-02-15T08:27:13;62.92;;;24.48;;
78207;SDS011;67481;50.244;18.288;2023-02-15T08:29:59;61.28;;;26.10;;
78207;SDS011;67481;50.244;18.288;2023-02-15T08:32:44;55.17;;;23.80;;
78207;SDS011;67481;50.244;18.288;2023-02-15T08:35:30;64.00;;;27.92;;
78207;SDS011;67481;50.244;18.288;2023-02-15T08:38:42;85.93;;;34.38;;
78207;SDS011;67481;50.244;18.288;2023-02-15T08:41:29;68.32;;;26.85;;
78207;SDS011;67481;50.244;18.288;2023-02-15T08:44:20;68.70;;;26.95;;
78207;SDS011;67481;50.244;18.288;2023-02-15T08:47:05;81.35;;;31.70;;
78207;SDS011;67481;50.244;18.288;2023-02-15T08:49:51;67.43;;;27.45;;
78207;SDS011;67481;50.244;18.288;2023-02-15T08:52:37;66.93;;;27.98;;
78207;SDS011;67481;50.244;18.288;2023-02-15T08:55:23;28.00;;;14.02;;
78207;SDS011;67481;50.244;18.288;2023-02-15T08:58:10;45.88;;;18.90;;
78207;SDS011;67481;50.244;18.288;2023-02-15T09:00:56;50.67;;;22.15;;
78207;SDS011;67481;50.244;18.288;2023-02-15T09:03:44;36.95;;;16.35;;
78207;SDS011;67481;50.244;18.288;2023-02-15T09:06:31;62.80;;;25.98;;
78207;SDS011;67481;50.244;18.288;2023-02-15T09:09:18;50.65;;;23.55;;
78207;SDS011;67481;50.244;18.288;2023-02-15T09:12:04;63.45;;;26.50;;
78207;SDS011;67481;50.244;18.288;2023-02-15T09:14:50;44.85;;;19.10;;
78207;SDS011;67481;50.244;18.288;2023-02-15T09:17:36;57.50;;;24.65;;
78207;SDS011;67481;50.244;18.288;2023-02-15T09:20:24;38.55;;;17.88;;
78207;SDS011;67481;50.244;18.288;2023-02-15T09:23:10;69.43;;;28.65;;
78207;SDS011;67481;50.244;18.288;2023-02-15T09:26:12;66.90;;;25.80;;
78207;SDS011;67481;50.244;18.288;2023-02-15T09:29:00;62.75;;;26.10;;
78207;SDS011;67481;50.244;18.288;2023-02-15T09:31:48;51.17;;;21.25;;
78207;SDS011;67481;50.244;18.288;2023-02-15T09:34:35;68.95;;;29.30;;
78207;SDS011;67481;50.244;18.288;2023-02-15T09:37:21;47.50;;;20.42;;
78207;SDS011;67481;50.244;18.288;2023-02-15T09:40:08;86.43;;;34.42;;
78207;SDS011;67481;50.244;18.288;2023-02-15T09:43:17;67.43;;;28.60;;
78207;SDS011;67481;50.244;18.288;2023-02-15T09:56:01;63.63;;;29.80;;
78207;SDS011;67481;50.244;18.288;2023-02-15T10:05:38;28.67;;;11.93;;
78207;SDS011;67481;50.244;18.288;2023-02-15T10:18:13;47.03;;;21.58;;
78207;SDS011;67481;50.244;18.288;2023-02-15T10:27:17;55.45;;;21.48;;
78207;SDS011;67481;50.244;18.288;2023-02-15T10:30:08;47.10;;;18.33;;
78207;SDS011;67481;50.244;18.288;2023-02-15T10:39:24;35.97;;;17.13;;
78207;SDS011;67481;50.244;18.288;2023-02-15T10:42:26;30.60;;;14.27;;
78207;SDS011;67481;50.244;18.288;2023-02-15T11:01:14;45.80;;;20.42;;
78207;SDS011;67481;50.244;18.288;2023-02-15T11:07:38;32.28;;;13.30;;
78207;SDS011;67481;50.244;18.288;2023-02-15T11:10:49;38.13;;;17.15;;
78207;SDS011;67481;50.244;18.288;2023-02-15T11:13:38;24.10;;;12.20;;
78207;SDS011;67481;50.244;18.288;2023-02-15T11:16:28;25.05;;;11.73;;
78207;SDS011;67481;50.244;18.288;2023-02-15T11:19:23;33.13;;;14.68;;
78207;SDS011;67481;50.244;18.288;2023-02-15T11:22:13;33.58;;;12.20;;
78207;SDS011;67481;50.244;18.288;2023-02-15T11:25:04;36.00;;;14.20;;
78207;SDS011;67481;50.244;18.288;2023-02-15T11:28:03;33.22;;;13.57;;
78207;SDS011;67481;50.244;18.288;2023-02-15T11:33:38;29.15;;;13.73;;
78207;SDS011;67481;50.244;18.288;2023-02-15T11:36:34;15.80;;;7.43;;
78207;SDS011;67481;50.244;18.288;2023-02-15T11:39:23;23.23;;;10.20;;
78207;SDS011;67481;50.244;18.288;2023-02-15T11:42:14;29.60;;;12.93;;
78207;SDS011;67481;50.244;18.288;2023-02-15T11:45:48;25.67;;;10.52;;
78207;SDS011;67481;50.244;18.288;2023-02-15T11:48:13;22.60;;;9.88;;
78207;SDS011;67481;50.244;18.288;2023-02-15T11:51:01;19.65;;;6.82;;
78207;SDS011;67481;50.244;18.288;2023-02-15T11:53:48;17.65;;;6.10;;
78207;SDS011;67481;50.244;18.288;2023-02-15T11:56:34;16.65;;;8.48;;
78207;SDS011;67481;50.244;18.288;2023-02-15T11:59:56;29.60;;;14.25;;
78207;SDS011;67481;50.244;18.288;2023-02-15T12:02:35;20.77;;;7.55;;
78207;SDS011;67481;50.244;18.288;2023-02-15T12:08:23;14.20;;;7.65;;
78207;SDS011;67481;50.244;18.288;2023-02-15T12:11:11;25.15;;;12.63;;
78207;SDS011;67481;50.244;18.288;2023-02-15T12:19:37;22.38;;;10.02;;
78207;SDS011;67481;50.244;18.288;2023-02-15T12:25:57;20.13;;;8.45;;
78207;SDS011;67481;50.244;18.288;2023-02-15T12:28:39;17.25;;;7.03;;
78207;SDS011;67481;50.244;18.288;2023-02-15T12:31:30;19.15;;;8.60;;
78207;SDS011;67481;50.244;18.288;2023-02-15T12:34:21;18.23;;;8.55;;
78207;SDS011;67481;50.244;18.288;2023-02-15T12:37:14;14.50;;;6.22;;
78207;SDS011;67481;50.244;18.288;2023-02-15T12:40:18;11.45;;;6.00;;
78207;SDS011;67481;50.244;18.288;2023-02-15T12:46:25;16.13;;;8.00;;
78207;SDS011;67481;50.244;18.288;2023-02-15T12:49:21;19.30;;;8.55;;
78207;SDS011;67481;50.244;18.288;2023-02-15T12:55:40;13.63;;;6.53;;
78207;SDS011;67481;50.244;18.288;2023-02-15T12:58:18;25.73;;;9.77;;
78207;SDS011;67481;50.244;18.288;2023-02-15T13:01:11;21.30;;;8.35;;
78207;SDS011;67481;50.244;18.288;2023-02-15T13:04:06;13.15;;;5.45;;
78207;SDS011;67481;50.244;18.288;2023-02-15T13:07:01;9.90;;;4.50;;
78207;SDS011;67481;50.244;18.288;2023-02-15T13:09:48;16.63;;;6.93;;
78207;SDS011;67481;50.244;18.288;2023-02-15T13:12:35;23.85;;;9.75;;
78207;SDS011;67481;50.244;18.288;2023-02-15T13:15:30;16.80;;;7.25;;
78207;SDS011;67481;50.244;18.288;2023-02-15T13:18:28;19.48;;;7.18;;
78207;SDS011;67481;50.244;18.288;2023-02-15T13:21:16;11.80;;;4.53;;
78207;SDS011;67481;50.244;18.288;2023-02-15T13:27:16;11.57;;;5.28;;
78207;SDS011;67481;50.244;18.288;2023-02-15T13:30:27;14.35;;;6.30;;
78207;SDS011;67481;50.244;18.288;2023-02-15T13:36:15;22.52;;;9.95;;
78207;SDS011;67481;50.244;18.288;2023-02-15T14:03:19;17.83;;;7.40;;
78207;SDS011;67481;50.244;18.288;2023-02-15T14:15:38;7.80;;;2.92;;
78207;SDS011;67481;50.244;18.288;2023-02-15T14:18:36;12.65;;;4.65;;
78207;SDS011;67481;50.244;18.288;2023-02-15T14:21:40;11.20;;;5.03;;
78207;SDS011;67481;50.244;18.288;2023-02-15T14:27:59;8.13;;;3.45;;
78207;SDS011;67481;50.244;18.288;2023-02-15T14:30:53;13.75;;;6.57;;
78207;SDS011;67481;50.244;18.288;2023-02-15T14:33:40;17.10;;;5.78;;
78207;SDS011;67481;50.244;18.288;2023-02-15T14:36:33;13.75;;;4.93;;
78207;SDS011;67481;50.244;18.288;2023-02-15T14:45:46;20.48;;;8.77;;
78207;SDS011;67481;50.244;18.288;2023-02-15T15:03:23;12.10;;;4.15;;
78207;SDS011;67481;50.244;18.288;2023-02-15T15:06:19;27.45;;;9.48;;
78207;SDS011;67481;50.244;18.288;2023-02-15T15:09:23;16.85;;;5.47;;
78207;SDS011;67481;50.244;18.288;2023-02-15T15:18:48;10.07;;;3.88;;
78207;SDS011;67481;50.244;18.288;2023-02-15T15:27:42;27.85;;;9.75;;
78207;SDS011;67481;50.244;18.288;2023-02-15T15:33:37;26.27;;;11.05;;
78207;SDS011;67481;50.244;18.288;2023-02-15T15:39:55;23.13;;;9.38;;
78207;SDS011;67481;50.244;18.288;2023-02-15T15:50:52;22.65;;;9.80;;
78207;SDS011;67481;50.244;18.288;2023-02-15T15:56:28;44.75;;;16.85;;
78207;SDS011;67481;50.244;18.288;2023-02-15T15:59:27;49.55;;;18.20;;
78207;SDS011;67481;50.244;18.288;2023-02-15T16:02:15;50.40;;;18.75;;
78207;SDS011;67481;50.244;18.288;2023-02-15T16:05:08;48.65;;;18.40;;
78207;SDS011;67481;50.244;18.288;2023-02-15T16:07:54;41.58;;;16.42;;
78207;SDS011;67481;50.244;18.288;2023-02-15T16:10:39;33.63;;;10.80;;
78207;SDS011;67481;50.244;18.288;2023-02-15T16:16:51;37.67;;;14.48;;
78207;SDS011;67481;50.244;18.288;2023-02-15T16:22:25;32.28;;;12.02;;
78207;SDS011;67481;50.244;18.288;2023-02-15T16:29:12;42.20;;;17.30;;
78207;SDS011;67481;50.244;18.288;2023-02-15T16:32:21;40.53;;;16.48;;
78207;SDS011;67481;50.244;18.288;2023-02-15T16:35:16;39.20;;;16.33;;
78207;SDS011;67481;50.244;18.288;2023-02-15T16:38:09;60.08;;;22.33;;
78207;SDS011;67481;50.244;18.288;2023-02-15T16:41:13;34.20;;;14.25;;
78207;SDS011;67481;50.244;18.288;2023-02-15T16:44:06;39.88;;;15.00;;
78207;SDS011;67481;50.244;18.288;2023-02-15T16:46:56;38.45;;;14.30;;
78207;SDS011;67481;50.244;18.288;2023-02-15T16:49:43;41.15;;;16.02;;
78207;SDS011;67481;50.244;18.288;2023-02-15T16:52:30;59.75;;;24.40;;
78207;SDS011;67481;50.244;18.288;2023-02-15T16:55:20;55.13;;;19.92;;
78207;SDS011;67481;50.244;18.288;2023-02-15T17:05:50;58.58;;;23.08;;
78207;SDS011;67481;50.244;18.288;2023-02-15T17:12:13;83.18;;;39.40;;
78207;SDS011;67481;50.244;18.288;2023-02-15T17:20:37;88.43;;;32.13;;
78207;SDS011;67481;50.244;18.288;2023-02-15T17:23:52;145.90;;;67.05;;
78207;SDS011;67481;50.244;18.288;2023-02-15T17:27:00;112.13;;;42.05;;
78207;SDS011;67481;50.244;18.288;2023-02-15T17:29:55;107.07;;;42.92;;
78207;SDS011;67481;50.244;18.288;2023-02-15T17:32:56;51.70;;;20.00;;
78207;SDS011;67481;50.244;18.288;2023-02-15T17:35:43;58.47;;;23.80;;
78207;SDS011;67481;50.244;18.288;2023-02-15T17:41:44;64.07;;;29.08;;
78207;SDS011;67481;50.244;18.288;2023-02-15T17:44:31;59.03;;;23.95;;
78207;SDS011;67481;50.244;18.288;2023-02-15T17:47:17;60.45;;;25.48;;
78207;SDS011;67481;50.244;18.288;2023-02-15T17:50:04;63.13;;;27.63;;
78207;SDS011;67481;50.244;18.288;2023-02-15T17:52:51;61.30;;;24.52;;
78207;SDS011;67481;50.244;18.288;2023-02-15T17:55:38;66.88;;;26.35;;
78207;SDS011;67481;50.244;18.288;2023-02-15T17:58:24;69.47;;;25.30;;
78207;SDS011;67481;50.244;18.288;2023-02-15T18:01:11;68.80;;;24.15;;
78207;SDS011;67481;50.244;18.288;2023-02-15T18:04:24;39.17;;;16.38;;
78207;SDS011;67481;50.244;18.288;2023-02-15T18:07:39;22.20;;;11.30;;
78207;SDS011;67481;50.244;18.288;2023-02-15T18:10:43;52.00;;;20.98;;
78207;SDS011;67481;50.244;18.288;2023-02-15T18:13:48;52.60;;;19.88;;
78207;SDS011;67481;50.244;18.288;2023-02-15T18:16:39;68.10;;;24.00;;
78207;SDS011;67481;50.244;18.288;2023-02-15T18:19:27;41.47;;;17.88;;
78207;SDS011;67481;50.244;18.288;2023-02-15T18:22:14;30.15;;;11.07;;
78207;SDS011;67481;50.244;18.288;2023-02-15T18:25:02;55.50;;;23.05;;
78207;SDS011;67481;50.244;18.288;2023-02-15T18:27:47;50.45;;;19.55;;
78207;SDS011;67481;50.244;18.288;2023-02-15T18:30:33;53.03;;;20.60;;
78207;SDS011;67481;50.244;18.288;2023-02-15T18:36:13;53.75;;;23.25;;
78207;SDS011;67481;50.244;18.288;2023-02-15T18:39:01;99.05;;;40.33;;
78207;SDS011;67481;50.244;18.288;2023-02-15T18:41:53;68.88;;;27.30;;
78207;SDS011;67481;50.244;18.288;2023-02-15T18:44:38;215.88;;;59.80;;
78207;SDS011;67481;50.244;18.288;2023-02-15T18:47:25;118.45;;;39.10;;
78207;SDS011;67481;50.244;18.288;2023-02-15T18:50:12;52.38;;;19.58;;
78207;SDS011;67481;50.244;18.288;2023-02-15T18:52:58;69.38;;;29.73;;
78207;SDS011;67481;50.244;18.288;2023-02-15T18:55:44;70.38;;;27.15;;
78207;SDS011;67481;50.244;18.288;2023-02-15T18:58:29;72.15;;;28.65;;
78207;SDS011;67481;50.244;18.288;2023-02-15T19:01:16;70.20;;;29.50;;
78207;SDS011;67481;50.244;18.288;2023-02-15T19:04:03;63.67;;;25.02;;
78207;SDS011;67481;50.244;18.288;2023-02-15T19:06:51;46.40;;;18.23;;
78207;SDS011;67481;50.244;18.288;2023-02-15T19:09:37;33.13;;;16.10;;
78207;SDS011;67481;50.244;18.288;2023-02-15T19:12:25;62.00;;;27.70;;
78207;SDS011;67481;50.244;18.288;2023-02-15T19:15:13;41.83;;;17.42;;
78207;SDS011;67481;50.244;18.288;2023-02-15T19:18:00;45.13;;;18.17;;
78207;SDS011;67481;50.244;18.288;2023-02-15T19:20:45;52.92;;;19.58;;
78207;SDS011;67481;50.244;18.288;2023-02-15T19:23:32;59.83;;;23.70;;
78207;SDS011;67481;50.244;18.288;2023-02-15T19:26:17;54.17;;;21.58;;
78207;SDS011;67481;50.244;18.288;2023-02-15T19:29:03;74.47;;;26.15;;
78207;SDS011;67481;50.244;18.288;2023-02-15T19:31:48;56.55;;;23.70;;
78207;SDS011;67481;50.244;18.288;2023-02-15T19:34:34;66.45;;;26.23;;
78207;SDS011;67481;50.244;18.288;2023-02-15T19:37:23;36.63;;;15.98;;
78207;SDS011;67481;50.244;18.288;2023-02-15T19:43:17;50.20;;;20.02;;
78207;SDS011;67481;50.244;18.288;2023-02-15T19:46:04;29.58;;;11.70;;
78207;SDS011;67481;50.244;18.288;2023-02-15T19:48:51;49.25;;;20.02;;
78207;SDS011;67481;50.244;18.288;2023-02-15T19:51:38;56.90;;;22.95;;
78207;SDS011;67481;50.244;18.288;2023-02-15T19:54:28;61.10;;;21.42;;
78207;SDS011;67481;50.244;18.288;2023-02-15T19:57:15;57.15;;;22.17;;
78207;SDS011;67481;50.244;18.288;2023-02-15T20:00:01;50.92;;;19.67;;
78207;SDS011;67481;50.244;18.288;2023-02-15T20:03:06;45.92;;;17.80;;
78207;SDS011;67481;50.244;18.288;2023-02-15T20:05:52;42.90;;;14.68;;
78207;SDS011;67481;50.244;18.288;2023-02-15T20:08:37;40.50;;;15.73;;
78207;SDS011;67481;50.244;18.288;2023-02-15T20:11:23;46.78;;;16.10;;
78207;SDS011;67481;50.244;18.288;2023-02-15T20:14:11;60.75;;;21.50;;
78207;SDS011;67481;50.244;18.288;2023-02-15T20:16:58;64.20;;;20.77;;
78207;SDS011;67481;50.244;18.288;2023-02-15T20:19:43;36.50;;;15.65;;